^^
Meteo Knjazevac Station Historical Data
Daily Summary for February 21, 2021 Units:  Both    English   Metric
Daily Weekly Monthly Yearly Custom
  High: Low: Average:
Temperature: 65.7 °F /  18.7 °C 59.7 °F /  15.4 °C 62.6 °F /  17 °C
Dew Point: 63.9 °F /  17.7 °C 59.2 °F /  15.1 °C 61.5 °F /  16.4 °C
Humidity: 99% 94% 96%
Wind Speed: 3mph /  4.8km/h - 1mph /  1.6km/h
Wind Gust: 6mph /  9.7km/h - -
Wind- - WSW
Pressure: 29.99 in /  1015.5 hPa 29.97 in /  1014.8 hPa -
Precipitation: 0.00 in /  0 mm    
Historical Graphs
 
 
Tabular Data for February 21, 2021
Time Temperature Dew Point Pressure Wind Wind Speed Wind Gust Humidity Rainfall Rate (Hourly) solar Conditions
00:00 65.7 °F /  18.7 °C 63.9 °F /  17.7 °C 29.99in /  1015.5hPa Calm   3mph /  4.8km/h 94% 0.00in /  0mm 0 W/m2
00:10 65.4 °F /  18.6 °C 63.6 °F /  17.6 °C 29.99in /  1015.5hPa West 1mph /  1.6km/h 2mph /  3.2km/h 94% 0.00in /  0mm 0 W/m2
00:20 65.1 °F /  18.4 °C 63.3 °F /  17.4 °C 29.99in /  1015.5hPa WSW 1mph /  1.6km/h 2mph /  3.2km/h 94% 0.00in /  0mm 0 W/m2
00:30 64.9 °F /  18.3 °C 63.2 °F /  17.3 °C 29.98in /  1015.1hPa Calm   2mph /  3.2km/h 94% 0.00in /  0mm 0 W/m2
00:40 64.8 °F /  18.2 °C 63 °F /  17.2 °C 29.99in /  1015.5hPa North 1mph /  1.6km/h 2mph /  3.2km/h 94% 0.00in /  0mm 0 W/m2
00:50 64.5 °F /  18.1 °C 62.7 °F /  17.1 °C 29.99in /  1015.5hPa Calm   3mph /  4.8km/h 94% 0.00in /  0mm 0 W/m2
01:00 64.3 °F /  17.9 °C 62.6 °F /  17 °C 29.98in /  1015.1hPa NE 1mph /  1.6km/h 3mph /  4.8km/h 94% 0.00in /  0mm 0 W/m2
01:10 63.7 °F /  17.6 °C 61.9 °F /  16.6 °C 29.98in /  1015.1hPa WSW 1mph /  1.6km/h 3mph /  4.8km/h 94% 0.00in /  0mm 0 W/m2
01:20 63.3 °F /  17.4 °C 61.9 °F /  16.6 °C 29.98in /  1015.1hPa SW 3mph /  4.8km/h 4mph /  6.4km/h 95% 0.00in /  0mm 0 W/m2
01:30 63 °F /  17.2 °C 61.5 °F /  16.4 °C 29.98in /  1015.1hPa West 2mph /  3.2km/h 3mph /  4.8km/h 95% 0.00in /  0mm 0 W/m2
01:40 62.8 °F /  17.1 °C 61.6 °F /  16.4 °C 29.97in /  1014.8hPa NNW 1mph /  1.6km/h 6mph /  9.7km/h 96% 0.00in /  0mm 0 W/m2
01:50 62.7 °F /  17.1 °C 61.5 °F /  16.4 °C 29.97in /  1014.8hPa West 1mph /  1.6km/h 3mph /  4.8km/h 96% 0.00in /  0mm 0 W/m2
02:00 62.4 °F /  16.9 °C 61.3 °F /  16.3 °C 29.97in /  1014.8hPa Calm   2mph /  3.2km/h 96% 0.00in /  0mm 0 W/m2
02:10 62.2 °F /  16.8 °C 61.1 °F /  16.2 °C 29.97in /  1014.8hPa WNW 1mph /  1.6km/h 3mph /  4.8km/h 96% 0.00in /  0mm 0 W/m2
02:20 61.7 °F /  16.5 °C 60.5 °F /  15.8 °C 29.98in /  1015.1hPa WSW 2mph /  3.2km/h 5mph /  8km/h 96% 0.00in /  0mm 0 W/m2
02:30 61.3 °F /  16.3 °C 60.8 °F /  16 °C 29.97in /  1014.8hPa West 2mph /  3.2km/h 3mph /  4.8km/h 98% 0.00in /  0mm 0 W/m2
02:40 61.3 °F /  16.3 °C 60.8 °F /  16 °C 29.97in /  1014.8hPa WSW 1mph /  1.6km/h 3mph /  4.8km/h 98% 0.00in /  0mm 0 W/m2
02:50 61 °F /  16.1 °C 60.4 °F /  15.8 °C 29.97in /  1014.8hPa Calm   2mph /  3.2km/h 98% 0.00in /  0mm 0 W/m2
03:00 60.8 °F /  16 °C 60.2 °F /  15.7 °C 29.97in /  1014.8hPa Calm   2mph /  3.2km/h 98% 0.00in /  0mm 0 W/m2
03:10 60.6 °F /  15.9 °C 60.1 °F /  15.6 °C 29.97in /  1014.8hPa WNW 2mph /  3.2km/h 3mph /  4.8km/h 98% 0.00in /  0mm 0 W/m2
03:20 60.6 °F /  15.9 °C 60.3 °F /  15.7 °C 29.97in /  1014.8hPa NNW 1mph /  1.6km/h 3mph /  4.8km/h 99% 0.00in /  0mm 0 W/m2
03:30 60.4 °F /  15.8 °C 59.9 °F /  15.5 °C 29.97in /  1014.8hPa NW 1mph /  1.6km/h 3mph /  4.8km/h 98% 0.00in /  0mm 0 W/m2
03:40 60.2 °F /  15.7 °C 59.6 °F /  15.3 °C 29.97in /  1014.8hPa WNW 1mph /  1.6km/h 3mph /  4.8km/h 98% 0.00in /  0mm 0 W/m2
03:50 59.7 °F /  15.4 °C 59.2 °F /  15.1 °C 29.97in /  1014.8hPa SW 2mph /  3.2km/h 3mph /  4.8km/h 98% 0.00in /  0mm 0 W/m2
Knjazevac, Serbia
Compliments of Weather Underground - 2 mb